Time,TemperatureF,DewpointF,PressureIn,WindDirection,WindDirectionDegrees,WindSpeedMPH,WindSpeedGustMPH,Humidity,HourlyPrecipIn,Conditions,Clouds,dailyrainin,SoftwareType,DateUTC
2013-10-26 00:01:00,44.3,39.5,30.01,East,79,1.0,1.0,83,0.00,,,0.00,Wunderground v.1.15,2013-10-26 04:01:00,
2013-10-26 00:02:00,44.3,38.8,30.01,East,79,1.0,3.0,81,0.00,,,0.00,Wunderground v.1.15,2013-10-26 04:02:00,
2013-10-26 00:03:00,44.3,38.5,30.01,East,79,1.0,3.0,80,0.00,,,0.00,Wunderground v.1.15,2013-10-26 04:03:00,
2013-10-26 00:08:00,44.3,38.5,30.01,ENE,73,1.0,3.0,80,0.00,,,0.00,Wunderground v.1.15,2013-10-26 04:08:00,
2013-10-26 00:11:00,44.3,38.5,30.01,ENE,75,1.0,1.0,80,0.00,,,0.00,Wunderground v.1.15,2013-10-26 04:11:00,
2013-10-26 00:17:00,44.6,37.5,30.01,East,79,1.0,2.0,76,0.00,,,0.00,Wunderground v.1.15,2013-10-26 04:17:00,
2013-10-26 00:22:00,45.1,37.6,30.01,ESE,107,1.0,1.0,75,0.00,,,0.00,Wunderground v.1.15,2013-10-26 04:22:00,
2013-10-26 00:28:00,45.2,38.4,30.01,ENE,78,1.0,3.0,77,0.00,,,0.00,Wunderground v.1.15,2013-10-26 04:28:00,
2013-10-26 00:33:00,45.5,38.0,30.00,East,80,1.0,3.0,75,0.00,,,0.00,Wunderground v.1.15,2013-10-26 04:33:00,
2013-10-26 00:39:00,45.8,36.9,30.00,ESE,104,1.0,5.0,71,0.00,,,0.00,Wunderground v.1.15,2013-10-26 04:39:00,
2013-10-26 00:45:00,46.0,37.8,29.99,South,185,1.0,1.0,73,0.00,,,0.00,Wunderground v.1.15,2013-10-26 04:45:00,
2013-10-26 00:50:00,46.0,36.8,29.99,East,96,1.0,5.0,70,0.00,,,0.00,Wunderground v.1.15,2013-10-26 04:50:00,
2013-10-26 00:55:00,46.1,37.9,29.99,ESE,119,1.0,4.0,73,0.00,,,0.00,Wunderground v.1.15,2013-10-26 04:55:00,
2013-10-26 01:01:00,46.0,37.5,29.98,SE,124,1.0,1.0,72,0.00,,,0.00,Wunderground v.1.15,2013-10-26 05:01:00,
2013-10-26 01:06:00,46.0,38.2,29.98,SE,143,1.0,6.0,74,0.00,,,0.00,Wunderground v.1.15,2013-10-26 05:06:00,
2013-10-26 01:12:00,46.1,38.3,29.98,ENE,78,1.0,5.0,74,0.00,,,0.00,Wunderground v.1.15,2013-10-26 05:12:00,
2013-10-26 01:18:00,46.2,38.7,29.97,East,88,1.0,5.0,75,0.00,,,0.00,Wunderground v.1.15,2013-10-26 05:18:00,
2013-10-26 01:23:00,46.4,37.9,29.97,ENE,65,1.0,2.0,72,0.00,,,0.00,Wunderground v.1.15,2013-10-26 05:23:00,
2013-10-26 01:28:00,46.4,37.9,29.97,South,185,1.0,2.0,72,0.00,,,0.00,Wunderground v.1.15,2013-10-26 05:28:00,
2013-10-26 01:35:00,46.4,36.4,29.96,SE,124,1.0,1.0,68,0.00,,,0.00,Wunderground v.1.15,2013-10-26 05:35:00,
2013-10-26 01:40:00,46.4,37.9,29.96,East,85,1.0,3.0,72,0.00,,,0.00,Wunderground v.1.15,2013-10-26 05:40:00,
2013-10-26 01:45:00,46.4,38.2,29.96,WSW,253,1.0,3.0,73,0.00,,,0.00,Wunderground v.1.15,2013-10-26 05:45:00,
2013-10-26 01:50:00,46.4,38.2,29.96,East,89,1.0,3.0,73,0.00,,,0.00,Wunderground v.1.15,2013-10-26 05:50:00,
2013-10-26 01:56:00,46.4,37.5,29.96,West,261,1.0,3.0,71,0.00,,,0.01,Wunderground v.1.15,2013-10-26 05:56:00,
2013-10-26 02:02:00,46.4,38.9,29.95,ENE,69,1.0,3.0,75,0.00,,,0.01,Wunderground v.1.15,2013-10-26 06:02:00,
2013-10-26 02:08:00,46.2,38.4,29.95,NE,54,1.0,6.0,74,0.00,,,0.01,Wunderground v.1.15,2013-10-26 06:08:00,
2013-10-26 02:13:00,46.5,37.6,29.95,ESE,113,2.0,2.0,71,0.00,,,0.01,Wunderground v.1.15,2013-10-26 06:13:00,
2013-10-26 02:18:00,46.5,37.6,29.94,ENE,62,2.0,5.0,71,0.00,,,0.01,Wunderground v.1.15,2013-10-26 06:18:00,
2013-10-26 02:25:00,46.4,38.6,29.94,East,83,1.0,3.0,74,0.00,,,0.01,Wunderground v.1.15,2013-10-26 06:25:00,
2013-10-26 02:30:00,46.4,38.2,29.94,ENE,58,1.0,3.0,73,0.00,,,0.01,Wunderground v.1.15,2013-10-26 06:30:00,
2013-10-26 02:35:00,46.7,36.7,29.94,ESE,104,2.0,3.0,68,0.00,,,0.01,Wunderground v.1.15,2013-10-26 06:35:00,
2013-10-26 02:41:00,46.7,38.9,29.94,NE,47,2.0,2.0,74,0.00,,,0.01,Wunderground v.1.15,2013-10-26 06:41:00,
2013-10-26 02:46:00,47.0,38.1,29.93,ENE,64,1.0,6.0,71,0.00,,,0.01,Wunderground v.1.15,2013-10-26 06:46:00,
2013-10-26 02:51:00,47.1,38.9,29.93,ENE,75,2.0,3.0,73,0.00,,,0.01,Wunderground v.1.15,2013-10-26 06:51:00,
2013-10-26 02:56:00,47.3,37.6,29.93,SW,220,2.0,3.0,69,0.00,,,0.01,Wunderground v.1.15,2013-10-26 06:56:00,
2013-10-26 03:02:00,47.4,39.5,29.92,SW,222,1.0,10.0,74,0.00,,,0.01,Wunderground v.1.15,2013-10-26 07:02:00,
2013-10-26 03:08:00,47.7,38.4,29.92,NE,52,2.0,10.0,70,0.00,,,0.01,Wunderground v.1.15,2013-10-26 07:08:00,
2013-10-26 03:13:00,47.7,38.8,29.92,South,182,3.0,5.0,71,0.00,,,0.01,Wunderground v.1.15,2013-10-26 07:13:00,
2013-10-26 03:20:00,47.4,39.9,29.91,SSW,198,2.0,5.0,75,0.00,,,0.01,Wunderground v.1.15,2013-10-26 07:20:00,
2013-10-26 03:25:00,47.6,37.9,29.91,SSE,162,2.0,4.0,69,0.00,,,0.01,Wunderground v.1.15,2013-10-26 07:25:00,
2013-10-26 03:30:00,47.6,39.0,29.91,NE,37,3.0,5.0,72,0.00,,,0.01,Wunderground v.1.15,2013-10-26 07:30:00,
2013-10-26 03:35:00,47.6,36.8,29.91,SW,224,2.0,3.0,66,0.00,,,0.01,Wunderground v.1.15,2013-10-26 07:35:00,
2013-10-26 03:41:00,47.6,38.7,29.91,East,93,2.0,2.0,71,0.00,,,0.01,Wunderground v.1.15,2013-10-26 07:41:00,
2013-10-26 03:46:00,47.4,37.4,29.89,East,93,2.0,2.0,68,0.00,,,0.01,Wunderground v.1.15,2013-10-26 07:46:00,
2013-10-26 03:52:00,47.4,37.0,29.89,South,184,3.0,3.0,67,0.00,,,0.01,Wunderground v.1.15,2013-10-26 07:52:00,
2013-10-26 03:57:00,47.4,36.6,29.89,SSE,168,3.0,4.0,66,0.00,,,0.01,Wunderground v.1.15,2013-10-26 07:57:00,
2013-10-26 04:02:00,47.6,36.4,29.88,SSE,158,3.0,11.0,65,0.00,,,0.01,Wunderground v.1.15,2013-10-26 08:02:00,
2013-10-26 04:07:00,47.3,38.0,29.88,East,80,2.0,11.0,70,0.00,,,0.01,Wunderground v.1.15,2013-10-26 08:07:00,
2013-10-26 04:13:00,47.3,36.9,29.88,East,93,2.0,5.0,67,0.00,,,0.01,Wunderground v.1.15,2013-10-26 08:13:00,
2013-10-26 04:18:00,47.1,36.7,29.86,SE,144,3.0,10.0,67,0.00,,,0.01,Wunderground v.1.15,2013-10-26 08:18:00,
2013-10-26 04:23:00,47.0,36.6,29.86,SW,229,3.0,4.0,67,0.00,,,0.01,Wunderground v.1.15,2013-10-26 08:23:00,
2013-10-26 04:30:00,47.0,35.4,29.86,ENE,73,2.0,5.0,64,0.00,,,0.01,Wunderground v.1.15,2013-10-26 08:30:00,
2013-10-26 04:35:00,46.8,35.3,29.86,SW,222,2.0,6.0,64,0.00,,,0.01,Wunderground v.1.15,2013-10-26 08:35:00,
2013-10-26 04:40:00,46.8,35.3,29.86,East,97,2.0,6.0,64,0.00,,,0.01,Wunderground v.1.15,2013-10-26 08:40:00,
2013-10-26 04:45:00,46.7,35.9,29.84,East,92,2.0,3.0,66,0.00,,,0.01,Wunderground v.1.15,2013-10-26 08:45:00,
2013-10-26 04:51:00,46.7,36.3,29.84,East,85,2.0,2.0,67,0.00,,,0.01,Wunderground v.1.15,2013-10-26 08:51:00,
2013-10-26 04:56:00,46.7,36.7,29.84,SSW,192,3.0,10.0,68,0.00,,,0.01,Wunderground v.1.15,2013-10-26 08:56:00,
2013-10-26 05:01:00,46.7,35.6,29.84,East,93,3.0,3.0,65,0.00,,,0.01,Wunderground v.1.15,2013-10-26 09:01:00,
2013-10-26 05:07:00,46.4,35.3,29.84,South,171,2.0,17.0,65,0.00,,,0.01,Wunderground v.1.15,2013-10-26 09:07:00,
2013-10-26 05:12:00,46.4,35.7,29.84,East,89,2.0,6.0,66,0.00,,,0.01,Wunderground v.1.15,2013-10-26 09:12:00,
2013-10-26 05:17:00,46.2,37.3,29.83,ENE,68,2.0,6.0,71,0.00,,,0.01,Wunderground v.1.15,2013-10-26 09:17:00,
2013-10-26 05:24:00,46.0,36.4,29.83,SSE,152,1.0,2.0,69,0.00,,,0.01,Wunderground v.1.15,2013-10-26 09:24:00,
2013-10-26 05:29:00,46.0,36.0,29.83,ESE,103,1.0,7.0,68,0.00,,,0.01,Wunderground v.1.15,2013-10-26 09:29:00,
2013-10-26 05:34:00,46.0,36.0,29.83,East,80,2.0,2.0,68,0.00,,,0.01,Wunderground v.1.15,2013-10-26 09:34:00,
2013-10-26 05:39:00,45.8,34.7,29.83,SSE,160,1.0,2.0,65,0.00,,,0.01,Wunderground v.1.15,2013-10-26 09:39:00,
2013-10-26 05:45:00,45.7,35.4,29.83,East,88,1.0,3.0,67,0.00,,,0.01,Wunderground v.1.15,2013-10-26 09:45:00,
2013-10-26 05:50:00,45.4,36.2,29.83,South,191,1.0,1.0,70,0.00,,,0.01,Wunderground v.1.15,2013-10-26 09:50:00,
2013-10-26 05:55:00,45.2,35.3,29.83,East,82,1.0,2.0,68,0.00,,,0.01,Wunderground v.1.15,2013-10-26 09:55:00,
2013-10-26 06:01:00,44.9,36.4,29.82,East,79,1.0,18.0,72,0.00,,,0.01,Wunderground v.1.15,2013-10-26 10:01:00,
2013-10-26 06:06:00,44.8,36.3,29.82,East,80,1.0,18.0,72,0.00,,,0.01,Wunderground v.1.15,2013-10-26 10:06:00,
2013-10-26 06:12:00,45.1,35.2,29.82,East,83,1.0,1.0,68,0.00,,,0.01,Wunderground v.1.15,2013-10-26 10:12:00,
2013-10-26 06:18:00,45.4,35.5,29.81,ENE,75,1.0,2.0,68,0.00,,,0.01,Wunderground v.1.15,2013-10-26 10:18:00,
2013-10-26 06:23:00,45.4,36.5,29.81,South,174,1.0,2.0,71,0.00,,,0.01,Wunderground v.1.15,2013-10-26 10:23:00,
2013-10-26 06:29:00,45.2,35.3,29.81,ENE,66,1.0,2.0,68,0.00,,,0.01,Wunderground v.1.15,2013-10-26 10:29:00,
2013-10-26 06:34:00,45.1,35.9,29.80,ENE,71,1.0,1.0,70,0.00,,,0.01,Wunderground v.1.15,2013-10-26 10:34:00,
2013-10-26 06:40:00,44.9,36.8,29.80,East,89,1.0,3.0,73,0.00,,,0.01,Wunderground v.1.15,2013-10-26 10:40:00,
2013-10-26 06:45:00,44.9,33.5,29.80,ESE,119,1.0,2.0,64,0.00,,,0.01,Wunderground v.1.15,2013-10-26 10:45:00,
2013-10-26 06:50:00,44.8,34.9,29.80,SSE,157,1.0,1.0,68,0.00,,,0.01,Wunderground v.1.15,2013-10-26 10:50:00,
2013-10-26 06:56:00,44.8,34.5,29.80,SE,143,0.0,1.0,67,0.00,,,0.01,Wunderground v.1.15,2013-10-26 10:56:00,
2013-10-26 07:01:00,44.8,35.6,29.80,SE,143,0.0,7.0,70,0.00,,,0.01,Wunderground v.1.15,2013-10-26 11:01:00,
2013-10-26 07:07:00,44.6,35.1,29.80,East,85,0.0,7.0,69,0.00,,,0.01,Wunderground v.1.15,2013-10-26 11:07:00,
2013-10-26 07:13:00,44.5,36.7,29.80,East,85,0.0,1.0,74,0.00,,,0.01,Wunderground v.1.15,2013-10-26 11:13:00,
2013-10-26 07:19:00,44.3,35.1,29.80,ENE,58,0.0,1.0,70,0.00,,,0.01,Wunderground v.1.15,2013-10-26 11:19:00,
2013-10-26 07:24:00,44.3,35.8,29.80,East,79,0.0,0.0,72,0.00,,,0.01,Wunderground v.1.15,2013-10-26 11:24:00,
2013-10-26 07:29:00,44.6,36.5,29.80,SSE,158,1.0,1.0,73,0.00,,,0.01,Wunderground v.1.15,2013-10-26 11:29:00,
2013-10-26 07:34:00,44.8,37.4,29.79,ENE,64,1.0,3.0,75,0.00,,,0.01,Wunderground v.1.15,2013-10-26 11:34:00,
2013-10-26 07:40:00,44.9,37.1,29.79,NNW,347,1.0,3.0,74,0.00,,,0.01,Wunderground v.1.15,2013-10-26 11:40:00,
2013-10-26 07:46:00,45.5,37.7,29.78,South,176,1.0,2.0,74,0.00,,,0.01,Wunderground v.1.15,2013-10-26 11:46:00,
2013-10-26 07:51:00,45.7,38.9,29.78,East,93,1.0,2.0,77,0.00,,,0.01,Wunderground v.1.15,2013-10-26 11:51:00,
2013-10-26 07:56:00,46.0,39.2,29.78,East,96,1.0,2.0,77,0.00,,,0.01,Wunderground v.1.15,2013-10-26 11:56:00,
2013-10-26 08:02:00,46.2,39.1,29.77,ENE,78,1.0,6.0,76,0.00,,,0.01,Wunderground v.1.15,2013-10-26 12:02:00,
2013-10-26 08:08:00,46.5,39.0,29.77,SSE,150,1.0,6.0,75,0.00,,,0.01,Wunderground v.1.15,2013-10-26 12:08:00,
2013-10-26 08:13:00,47.0,40.2,29.77,ESE,107,1.0,3.0,77,0.00,,,0.01,Wunderground v.1.15,2013-10-26 12:13:00,
2013-10-26 08:19:00,47.1,40.3,29.77,SW,230,1.0,6.0,77,0.00,,,0.01,Wunderground v.1.15,2013-10-26 12:19:00,
2013-10-26 08:24:00,47.6,39.7,29.77,South,171,1.0,2.0,74,0.00,,,0.01,Wunderground v.1.15,2013-10-26 12:24:00,
2013-10-26 08:29:00,47.9,40.4,29.77,WNW,302,2.0,2.0,75,0.00,,,0.01,Wunderground v.1.15,2013-10-26 12:29:00,
2013-10-26 08:35:00,48.2,40.6,29.77,ESE,121,3.0,5.0,75,0.00,,,0.01,Wunderground v.1.15,2013-10-26 12:35:00,
2013-10-26 08:40:00,48.0,40.5,29.77,SE,140,2.0,3.0,75,0.00,,,0.01,Wunderground v.1.15,2013-10-26 12:40:00,
2013-10-26 08:46:00,48.0,40.8,29.77,NE,44,2.0,8.0,76,0.00,,,0.01,Wunderground v.1.15,2013-10-26 12:46:00,
2013-10-26 08:51:00,48.2,40.6,29.77,East,88,2.0,3.0,75,0.00,,,0.01,Wunderground v.1.15,2013-10-26 12:51:00,
2013-10-26 08:57:00,48.0,41.5,29.77,SW,222,2.0,6.0,78,0.00,,,0.01,Wunderground v.1.15,2013-10-26 12:57:00,
2013-10-26 09:02:00,48.0,41.8,29.77,SE,130,2.0,17.0,79,0.00,,,0.01,Wunderground v.1.15,2013-10-26 13:02:00,
2013-10-26 09:08:00,47.9,41.7,29.77,SSE,155,2.0,17.0,79,0.00,,,0.01,Wunderground v.1.15,2013-10-26 13:08:00,
2013-10-26 09:14:00,48.0,40.5,29.77,SSW,198,2.0,7.0,75,0.00,,,0.01,Wunderground v.1.15,2013-10-26 13:14:00,
2013-10-26 09:19:00,48.3,40.4,29.77,SSE,160,3.0,7.0,74,0.00,,,0.01,Wunderground v.1.15,2013-10-26 13:19:00,
2013-10-26 09:25:00,48.2,42.0,29.77,East,79,3.0,5.0,79,0.00,,,0.01,Wunderground v.1.15,2013-10-26 13:25:00,
2013-10-26 09:30:00,48.2,42.0,29.77,NE,44,2.0,5.0,79,0.00,,,0.01,Wunderground v.1.15,2013-10-26 13:30:00,
2013-10-26 09:36:00,48.5,40.9,29.77,SSE,165,3.0,16.0,75,0.00,,,0.01,Wunderground v.1.15,2013-10-26 13:36:00,
2013-10-26 09:41:00,48.8,41.9,29.77,SSE,154,3.0,3.0,77,0.00,,,0.01,Wunderground v.1.15,2013-10-26 13:41:00,
2013-10-26 09:47:00,49.2,42.3,29.77,South,179,2.0,3.0,77,0.00,,,0.01,Wunderground v.1.15,2013-10-26 13:47:00,
2013-10-26 09:52:00,49.5,41.9,29.77,SSE,157,2.0,2.0,75,0.00,,,0.01,Wunderground v.1.15,2013-10-26 13:52:00,
2013-10-26 09:58:00,49.8,41.8,29.77,East,82,1.0,6.0,74,0.00,,,0.01,Wunderground v.1.15,2013-10-26 13:58:00,
2013-10-26 10:03:00,49.9,42.6,29.77,NE,54,1.0,12.0,76,0.00,,,0.01,Wunderground v.1.15,2013-10-26 14:03:00,
2013-10-26 10:09:00,49.9,40.5,29.77,South,178,3.0,12.0,70,0.00,,,0.01,Wunderground v.1.15,2013-10-26 14:09:00,
2013-10-26 10:14:00,49.9,41.2,29.77,South,181,4.0,5.0,72,0.00,,,0.01,Wunderground v.1.15,2013-10-26 14:14:00,
2013-10-26 10:20:00,49.9,41.9,29.76,SSW,199,2.0,5.0,74,0.00,,,0.01,Wunderground v.1.15,2013-10-26 14:20:00,
2013-10-26 10:25:00,49.9,42.3,29.76,South,179,2.0,3.0,75,0.00,,,0.01,Wunderground v.1.15,2013-10-26 14:25:00,
2013-10-26 10:31:00,50.1,41.8,29.76,SSE,167,3.0,3.0,73,0.00,,,0.01,Wunderground v.1.15,2013-10-26 14:31:00,
2013-10-26 10:36:00,50.1,41.1,29.76,SSW,212,3.0,11.0,71,0.00,,,0.01,Wunderground v.1.15,2013-10-26 14:36:00,
2013-10-26 10:42:00,50.2,41.9,29.76,WSW,253,3.0,6.0,73,0.00,,,0.01,Wunderground v.1.15,2013-10-26 14:42:00,
2013-10-26 10:47:00,50.2,41.9,29.76,South,178,4.0,6.0,73,0.00,,,0.01,Wunderground v.1.15,2013-10-26 14:47:00,
2013-10-26 10:52:00,50.1,41.8,29.76,West,272,4.0,6.0,73,0.00,,,0.01,Wunderground v.1.15,2013-10-26 14:52:00,
2013-10-26 10:58:00,50.2,41.5,29.76,South,174,3.0,6.0,72,0.00,,,0.01,Wunderground v.1.15,2013-10-26 14:58:00,
2013-10-26 11:03:00,50.4,41.7,29.75,ESE,121,4.0,19.0,72,0.00,,,0.01,Wunderground v.1.15,2013-10-26 15:03:00,
2013-10-26 11:09:00,50.2,42.2,29.75,South,184,3.0,19.0,74,0.00,,,0.01,Wunderground v.1.15,2013-10-26 15:09:00,
2013-10-26 11:15:00,50.2,41.5,29.75,SW,229,3.0,7.0,72,0.00,,,0.01,Wunderground v.1.15,2013-10-26 15:15:00,
2013-10-26 11:20:00,50.1,41.8,29.75,SSW,202,3.0,7.0,73,0.00,,,0.01,Wunderground v.1.15,2013-10-26 15:20:00,
2013-10-26 11:26:00,50.2,41.9,29.75,South,171,3.0,10.0,73,0.00,,,0.01,Wunderground v.1.15,2013-10-26 15:26:00,
2013-10-26 11:31:00,50.2,42.2,29.75,WSW,237,3.0,3.0,74,0.00,,,0.01,Wunderground v.1.15,2013-10-26 15:31:00,
2013-10-26 11:37:00,50.4,42.4,29.75,SSE,157,3.0,7.0,74,0.00,,,0.01,Wunderground v.1.15,2013-10-26 15:37:00,
2013-10-26 11:42:00,50.4,42.8,29.75,South,189,4.0,4.0,75,0.00,,,0.01,Wunderground v.1.15,2013-10-26 15:42:00,
2013-10-26 11:48:00,50.2,42.9,29.75,SSE,147,4.0,4.0,76,0.00,,,0.01,Wunderground v.1.15,2013-10-26 15:48:00,
2013-10-26 11:53:00,50.1,42.8,29.75,SW,219,2.0,5.0,76,0.00,,,0.01,Wunderground v.1.15,2013-10-26 15:53:00,
2013-10-26 11:59:00,49.9,41.9,29.75,SE,145,3.0,5.0,74,0.00,,,0.01,Wunderground v.1.15,2013-10-26 15:59:00,
2013-10-26 12:04:00,49.9,42.6,29.76,SSW,192,3.0,13.0,76,0.00,,,0.01,Wunderground v.1.15,2013-10-26 16:04:00,
2013-10-26 12:10:00,49.9,43.0,29.76,SSE,147,2.0,13.0,77,0.00,,,0.01,Wunderground v.1.15,2013-10-26 16:10:00,
2013-10-26 12:16:00,49.8,43.5,29.75,WSW,256,2.0,5.0,79,0.00,,,0.01,Wunderground v.1.15,2013-10-26 16:16:00,
2013-10-26 12:21:00,49.8,43.2,29.75,WSW,253,2.0,2.0,78,0.00,,,0.01,Wunderground v.1.15,2013-10-26 16:21:00,
2013-10-26 12:26:00,49.9,43.3,29.75,SW,224,2.0,3.0,78,0.00,,,0.01,Wunderground v.1.15,2013-10-26 16:26:00,
2013-10-26 12:32:00,49.9,43.0,29.76,SSW,198,3.0,6.0,77,0.00,,,0.01,Wunderground v.1.15,2013-10-26 16:32:00,
2013-10-26 12:37:00,49.8,42.9,29.76,WSW,258,3.0,6.0,77,0.00,,,0.01,Wunderground v.1.15,2013-10-26 16:37:00,
2013-10-26 12:43:00,49.9,44.0,29.76,South,171,3.0,5.0,80,0.00,,,0.01,Wunderground v.1.15,2013-10-26 16:43:00,
2013-10-26 12:48:00,49.9,43.6,29.76,WSW,243,2.0,5.0,79,0.00,,,0.01,Wunderground v.1.15,2013-10-26 16:48:00,
2013-10-26 12:53:00,49.9,44.0,29.76,SW,224,2.0,3.0,80,0.00,,,0.01,Wunderground v.1.15,2013-10-26 16:53:00,
2013-10-26 12:59:00,49.9,44.0,29.76,SSW,212,3.0,3.0,80,0.00,,,0.01,Wunderground v.1.15,2013-10-26 16:59:00,
2013-10-26 13:05:00,50.1,44.5,29.76,SSW,192,2.0,12.0,81,0.00,,,0.01,Wunderground v.1.15,2013-10-26 17:05:00,
2013-10-26 13:11:00,50.1,43.8,29.76,South,185,3.0,3.0,79,0.00,,,0.01,Wunderground v.1.15,2013-10-26 17:11:00,
2013-10-26 13:16:00,50.1,44.2,29.76,SW,234,3.0,7.0,80,0.00,,,0.01,Wunderground v.1.15,2013-10-26 17:16:00,
2013-10-26 13:21:00,50.2,44.6,29.76,South,184,3.0,3.0,81,0.00,,,0.01,Wunderground v.1.15,2013-10-26 17:21:00,
2013-10-26 13:27:00,50.4,44.5,29.76,South,171,3.0,5.0,80,0.00,,,0.01,Wunderground v.1.15,2013-10-26 17:27:00,
2013-10-26 13:32:00,50.4,44.5,29.76,South,189,2.0,4.0,80,0.00,,,0.01,Wunderground v.1.15,2013-10-26 17:32:00,
2013-10-26 13:38:00,50.4,44.5,29.76,SW,226,4.0,7.0,80,0.00,,,0.01,Wunderground v.1.15,2013-10-26 17:38:00,
2013-10-26 13:43:00,50.4,44.1,29.76,SSW,202,4.0,4.0,79,0.00,,,0.01,Wunderground v.1.15,2013-10-26 17:43:00,
2013-10-26 13:49:00,50.5,44.6,29.77,SW,223,4.0,7.0,80,0.00,,,0.01,Wunderground v.1.15,2013-10-26 17:49:00,
2013-10-26 13:54:00,50.5,45.2,29.77,WNW,285,4.0,5.0,82,0.00,,,0.01,Wunderground v.1.15,2013-10-26 17:54:00,
2013-10-26 14:00:00,50.7,44.8,29.76,West,264,3.0,5.0,80,0.00,,,0.01,Wunderground v.1.15,2013-10-26 18:00:00,
2013-10-26 14:05:00,50.7,44.4,29.76,WNW,285,3.0,14.0,79,0.00,,,0.01,Wunderground v.1.15,2013-10-26 18:05:00,
2013-10-26 14:10:00,50.8,44.5,29.76,SW,222,5.0,14.0,79,0.00,,,0.01,Wunderground v.1.15,2013-10-26 18:10:00,
2013-10-26 14:16:00,50.8,44.5,29.77,SSW,208,4.0,6.0,79,0.00,,,0.01,Wunderground v.1.15,2013-10-26 18:16:00,
2013-10-26 14:21:00,51.0,44.7,29.77,WNW,291,3.0,3.0,79,0.00,,,0.01,Wunderground v.1.15,2013-10-26 18:21:00,
2013-10-26 14:26:00,51.0,45.0,29.77,South,184,3.0,6.0,80,0.00,,,0.01,Wunderground v.1.15,2013-10-26 18:26:00,
2013-10-26 14:32:00,51.1,45.1,29.77,SSW,210,4.0,4.0,80,0.00,,,0.01,Wunderground v.1.15,2013-10-26 18:32:00,
2013-10-26 14:37:00,51.4,45.8,29.77,West,264,3.0,6.0,81,0.00,,,0.01,Wunderground v.1.15,2013-10-26 18:37:00,
2013-10-26 14:43:00,51.4,44.8,29.77,WNW,292,5.0,14.0,78,0.00,,,0.01,Wunderground v.1.15,2013-10-26 18:43:00,
2013-10-26 14:48:00,51.4,46.1,29.78,North,354,5.0,14.0,82,0.00,,,0.01,Wunderground v.1.15,2013-10-26 18:48:00,
2013-10-26 14:54:00,51.4,45.4,29.78,WSW,257,4.0,7.0,80,0.00,,,0.01,Wunderground v.1.15,2013-10-26 18:54:00,
2013-10-26 15:00:00,50.8,44.9,29.78,WSW,247,6.0,12.0,80,0.00,,,0.01,Wunderground v.1.15,2013-10-26 19:00:00,
2013-10-26 15:05:00,50.7,44.4,29.78,SW,223,6.0,13.0,79,0.00,,,0.01,Wunderground v.1.15,2013-10-26 19:05:00,
2013-10-26 15:10:00,50.7,45.1,29.78,SW,223,6.0,13.0,81,0.00,,,0.01,Wunderground v.1.15,2013-10-26 19:10:00,
2013-10-26 15:16:00,50.8,43.8,29.79,WSW,254,7.0,7.0,77,0.00,,,0.01,Wunderground v.1.15,2013-10-26 19:16:00,
2013-10-26 15:21:00,50.7,43.1,29.79,SW,229,5.0,7.0,75,0.00,,,0.01,Wunderground v.1.15,2013-10-26 19:21:00,
2013-10-26 15:27:00,50.7,42.0,29.79,WSW,244,6.0,13.0,72,0.00,,,0.01,Wunderground v.1.15,2013-10-26 19:27:00,
2013-10-26 15:33:00,51.1,42.4,29.80,West,263,7.0,10.0,72,0.00,,,0.01,Wunderground v.1.15,2013-10-26 19:33:00,
2013-10-26 15:38:00,51.1,41.7,29.80,West,261,7.0,10.0,70,0.00,,,0.01,Wunderground v.1.15,2013-10-26 19:38:00,
2013-10-26 15:43:00,51.0,42.3,29.80,West,281,7.0,10.0,72,0.00,,,0.01,Wunderground v.1.15,2013-10-26 19:43:00,
2013-10-26 15:49:00,50.7,41.6,29.81,WNW,299,6.0,22.0,71,0.00,,,0.01,Wunderground v.1.15,2013-10-26 19:49:00,
2013-10-26 15:55:00,50.5,41.8,29.81,West,272,7.0,10.0,72,0.00,,,0.01,Wunderground v.1.15,2013-10-26 19:55:00,
2013-10-26 16:00:00,50.4,41.3,29.81,West,275,6.0,10.0,71,0.00,,,0.01,Wunderground v.1.15,2013-10-26 20:00:00,
2013-10-26 16:05:00,50.4,41.7,29.81,WSW,254,5.0,18.0,72,0.00,,,0.01,Wunderground v.1.15,2013-10-26 20:05:00,
2013-10-26 16:11:00,50.4,41.0,29.81,WSW,256,6.0,6.0,70,0.00,,,0.01,Wunderground v.1.15,2013-10-26 20:11:00,
2013-10-26 16:17:00,50.2,40.8,29.82,West,267,7.0,16.0,70,0.00,,,0.01,Wunderground v.1.15,2013-10-26 20:17:00,
2013-10-26 16:22:00,50.1,40.3,29.82,West,264,6.0,7.0,69,0.00,,,0.01,Wunderground v.1.15,2013-10-26 20:22:00,
2013-10-26 16:28:00,50.1,41.1,29.82,WSW,254,5.0,7.0,71,0.00,,,0.01,Wunderground v.1.15,2013-10-26 20:28:00,
2013-10-26 16:33:00,49.9,41.9,29.83,West,260,5.0,7.0,74,0.00,,,0.01,Wunderground v.1.15,2013-10-26 20:33:00,
2013-10-26 16:38:00,49.8,42.2,29.83,WNW,294,5.0,10.0,75,0.00,,,0.01,Wunderground v.1.15,2013-10-26 20:38:00,
2013-10-26 16:45:00,49.8,40.4,29.84,NW,312,5.0,12.0,70,0.00,,,0.01,Wunderground v.1.15,2013-10-26 20:45:00,
2013-10-26 16:50:00,49.8,40.0,29.84,West,260,5.0,12.0,69,0.00,,,0.01,Wunderground v.1.15,2013-10-26 20:50:00,
2013-10-26 16:55:00,49.9,40.1,29.84,West,281,6.0,11.0,69,0.00,,,0.01,Wunderground v.1.15,2013-10-26 20:55:00,
2013-10-26 17:00:00,49.8,40.4,29.85,West,280,6.0,11.0,70,0.00,,,0.01,Wunderground v.1.15,2013-10-26 21:00:00,
2013-10-26 17:06:00,49.9,39.8,29.85,South,179,5.0,22.0,68,0.00,,,0.01,Wunderground v.1.15,2013-10-26 21:06:00,
2013-10-26 17:12:00,49.8,38.9,29.85,WNW,288,6.0,6.0,66,0.00,,,0.01,Wunderground v.1.15,2013-10-26 21:12:00,
2013-10-26 17:17:00,49.8,39.3,29.85,West,268,5.0,8.0,67,0.00,,,0.01,Wunderground v.1.15,2013-10-26 21:17:00,
2013-10-26 17:22:00,49.8,38.5,29.85,West,278,5.0,8.0,65,0.00,,,0.01,Wunderground v.1.15,2013-10-26 21:22:00,
2013-10-26 17:28:00,49.9,38.6,29.85,WNW,299,6.0,8.0,65,0.00,,,0.01,Wunderground v.1.15,2013-10-26 21:28:00,
2013-10-26 17:33:00,49.8,38.9,29.86,NNW,336,4.0,7.0,66,0.00,,,0.01,Wunderground v.1.15,2013-10-26 21:33:00,
2013-10-26 17:40:00,49.8,38.5,29.86,West,267,3.0,10.0,65,0.00,,,0.01,Wunderground v.1.15,2013-10-26 21:40:00,
2013-10-26 17:45:00,49.8,37.7,29.86,WSW,247,5.0,8.0,63,0.00,,,0.01,Wunderground v.1.15,2013-10-26 21:45:00,
2013-10-26 17:50:00,49.8,38.5,29.86,West,268,6.0,8.0,65,0.00,,,0.01,Wunderground v.1.15,2013-10-26 21:50:00,
2013-10-26 17:55:00,49.6,37.9,29.86,WSW,248,4.0,5.0,64,0.00,,,0.01,Wunderground v.1.15,2013-10-26 21:55:00,
2013-10-26 18:01:00,49.6,38.3,29.87,WNW,296,4.0,4.0,65,0.00,,,0.01,Wunderground v.1.15,2013-10-26 22:01:00,
2013-10-26 18:07:00,49.5,38.6,29.87,WSW,258,3.0,13.0,66,0.00,,,0.01,Wunderground v.1.15,2013-10-26 22:07:00,
2013-10-26 18:12:00,49.6,37.5,29.87,West,272,5.0,5.0,63,0.00,,,0.01,Wunderground v.1.15,2013-10-26 22:12:00,
2013-10-26 18:17:00,49.5,37.8,29.88,West,268,6.0,10.0,64,0.00,,,0.01,Wunderground v.1.15,2013-10-26 22:17:00,
2013-10-26 18:23:00,49.4,39.7,29.88,WSW,253,6.0,7.0,69,0.00,,,0.01,Wunderground v.1.15,2013-10-26 22:23:00,
2013-10-26 18:28:00,49.1,39.7,29.88,SW,229,6.0,11.0,70,0.00,,,0.01,Wunderground v.1.15,2013-10-26 22:28:00,
2013-10-26 18:33:00,49.1,39.0,29.89,WNW,284,6.0,7.0,68,0.00,,,0.01,Wunderground v.1.15,2013-10-26 22:33:00,
2013-10-26 18:40:00,49.1,38.6,29.89,WSW,251,6.0,12.0,67,0.00,,,0.01,Wunderground v.1.15,2013-10-26 22:40:00,
2013-10-26 18:45:00,49.1,39.0,29.89,West,270,5.0,6.0,68,0.00,,,0.01,Wunderground v.1.15,2013-10-26 22:45:00,
2013-10-26 18:50:00,48.9,38.8,29.89,West,272,6.0,10.0,68,0.00,,,0.01,Wunderground v.1.15,2013-10-26 22:50:00,
2013-10-26 18:56:00,48.8,37.9,29.89,West,272,4.0,7.0,66,0.00,,,0.01,Wunderground v.1.15,2013-10-26 22:56:00,
2013-10-26 19:01:00,48.8,36.4,29.90,WSW,258,4.0,7.0,62,0.00,,,0.01,Wunderground v.1.15,2013-10-26 23:01:00,
2013-10-26 19:06:00,48.6,37.0,29.90,WSW,253,5.0,14.0,64,0.00,,,0.01,Wunderground v.1.15,2013-10-26 23:06:00,
2013-10-26 19:12:00,48.3,35.5,29.90,West,278,5.0,5.0,61,0.00,,,0.01,Wunderground v.1.15,2013-10-26 23:12:00,
2013-10-26 19:17:00,48.3,35.0,29.90,West,261,5.0,8.0,60,0.00,,,0.01,Wunderground v.1.15,2013-10-26 23:17:00,
2013-10-26 19:22:00,48.2,34.5,29.90,NW,319,5.0,5.0,59,0.00,,,0.01,Wunderground v.1.15,2013-10-26 23:22:00,
2013-10-26 19:27:00,48.0,36.0,29.90,West,280,4.0,9.0,63,0.00,,,0.01,Wunderground v.1.15,2013-10-26 23:27:00,
2013-10-26 19:33:00,48.0,36.0,29.91,West,274,3.0,6.0,63,0.00,,,0.01,Wunderground v.1.15,2013-10-26 23:33:00,
2013-10-26 19:38:00,48.2,36.2,29.91,NW,304,4.0,11.0,63,0.00,,,0.01,Wunderground v.1.15,2013-10-26 23:38:00,
2013-10-26 19:45:00,48.2,36.6,29.92,WNW,287,3.0,4.0,64,0.00,,,0.01,Wunderground v.1.15,2013-10-26 23:45:00,
2013-10-26 19:50:00,48.5,35.7,29.92,West,261,3.0,12.0,61,0.00,,,0.01,Wunderground v.1.15,2013-10-26 23:50:00,
2013-10-26 19:55:00,48.6,35.7,29.92,West,260,5.0,5.0,61,0.00,,,0.01,Wunderground v.1.15,2013-10-26 23:55:00,
2013-10-26 20:00:00,48.6,35.7,29.92,NW,320,3.0,7.0,61,0.00,,,0.01,Wunderground v.1.15,2013-10-27 00:00:00,
2013-10-26 20:07:00,48.6,36.6,29.92,WSW,250,4.0,18.0,63,0.00,,,0.01,Wunderground v.1.15,2013-10-27 00:07:00,
2013-10-26 20:12:00,48.6,35.7,29.92,West,268,5.0,5.0,61,0.00,,,0.01,Wunderground v.1.15,2013-10-27 00:12:00,
2013-10-26 20:17:00,48.6,36.2,29.92,WNW,296,4.0,9.0,62,0.00,,,0.01,Wunderground v.1.15,2013-10-27 00:17:00,
2013-10-26 20:24:00,48.5,36.1,29.92,WSW,251,3.0,6.0,62,0.00,,,0.01,Wunderground v.1.15,2013-10-27 00:24:00,
2013-10-26 20:29:00,48.3,35.0,29.92,West,278,3.0,9.0,60,0.00,,,0.01,Wunderground v.1.15,2013-10-27 00:29:00,
2013-10-26 20:34:00,48.5,34.4,29.93,West,264,3.0,10.0,58,0.00,,,0.01,Wunderground v.1.15,2013-10-27 00:34:00,
2013-10-26 20:39:00,48.8,35.1,29.93,West,272,3.0,10.0,59,0.00,,,0.01,Wunderground v.1.15,2013-10-27 00:39:00,
2013-10-26 20:45:00,48.8,35.5,29.94,West,265,3.0,7.0,60,0.00,,,0.01,Wunderground v.1.15,2013-10-27 00:45:00,
2013-10-26 20:50:00,48.8,35.9,29.94,West,272,3.0,3.0,61,0.00,,,0.01,Wunderground v.1.15,2013-10-27 00:50:00,
2013-10-26 20:56:00,48.8,36.4,29.94,WNW,302,3.0,6.0,62,0.00,,,0.01,Wunderground v.1.15,2013-10-27 00:56:00,
2013-10-26 21:02:00,48.8,36.8,29.94,West,278,3.0,16.0,63,0.00,,,0.01,Wunderground v.1.15,2013-10-27 01:02:00,
2013-10-26 21:07:00,48.8,35.1,29.94,West,267,3.0,16.0,59,0.00,,,0.01,Wunderground v.1.15,2013-10-27 01:07:00,
2013-10-26 21:14:00,48.9,35.6,29.94,West,281,3.0,5.0,60,0.00,,,0.01,Wunderground v.1.15,2013-10-27 01:14:00,
2013-10-26 21:19:00,49.1,34.9,29.94,WNW,288,4.0,7.0,58,0.00,,,0.01,Wunderground v.1.15,2013-10-27 01:19:00,
2013-10-26 21:24:00,48.9,34.8,29.94,West,268,4.0,6.0,58,0.00,,,0.01,Wunderground v.1.15,2013-10-27 01:24:00,
2013-10-26 21:29:00,49.1,35.4,29.94,West,267,4.0,7.0,59,0.00,,,0.01,Wunderground v.1.15,2013-10-27 01:29:00,
2013-10-26 21:34:00,49.1,35.8,29.94,WSW,250,4.0,12.0,60,0.00,,,0.01,Wunderground v.1.15,2013-10-27 01:34:00,
2013-10-26 21:40:00,48.9,38.8,29.94,West,263,5.0,12.0,68,0.00,,,0.01,Wunderground v.1.15,2013-10-27 01:40:00,
2013-10-26 21:45:00,48.8,38.7,29.94,WNW,294,4.0,5.0,68,0.00,,,0.01,Wunderground v.1.15,2013-10-27 01:45:00,
2013-10-26 21:51:00,48.8,36.4,29.94,WNW,295,4.0,7.0,62,0.00,,,0.01,Wunderground v.1.15,2013-10-27 01:51:00,
2013-10-26 21:56:00,48.9,35.2,29.94,WSW,246,6.0,12.0,59,0.00,,,0.01,Wunderground v.1.15,2013-10-27 01:56:00,
2013-10-26 22:02:00,48.8,35.1,29.95,WSW,258,5.0,13.0,59,0.00,,,0.01,Wunderground v.1.15,2013-10-27 02:02:00,
2013-10-26 22:07:00,48.8,34.7,29.95,West,267,5.0,13.0,58,0.00,,,0.01,Wunderground v.1.15,2013-10-27 02:07:00,
2013-10-26 22:14:00,48.8,35.9,29.95,West,264,6.0,14.0,61,0.00,,,0.01,Wunderground v.1.15,2013-10-27 02:14:00,
2013-10-26 22:19:00,48.8,36.4,29.96,West,277,6.0,14.0,62,0.00,,,0.01,Wunderground v.1.15,2013-10-27 02:19:00,
2013-10-26 22:24:00,48.6,37.0,29.96,West,268,6.0,8.0,64,0.00,,,0.01,Wunderground v.1.15,2013-10-27 02:24:00,
2013-10-26 22:30:00,48.6,36.2,29.96,NNE,30,6.0,12.0,62,0.00,,,0.01,Wunderground v.1.15,2013-10-27 02:30:00,
2013-10-26 22:35:00,48.5,36.5,29.96,West,265,7.0,8.0,63,0.00,,,0.01,Wunderground v.1.15,2013-10-27 02:35:00,
2013-10-26 22:40:00,48.5,37.3,29.96,NW,315,6.0,10.0,65,0.00,,,0.01,Wunderground v.1.15,2013-10-27 02:40:00,
2013-10-26 22:46:00,48.3,38.2,29.96,West,264,6.0,10.0,68,0.00,,,0.01,Wunderground v.1.15,2013-10-27 02:46:00,
2013-10-26 22:52:00,48.0,39.8,29.96,West,260,5.0,7.0,73,0.00,,,0.01,Wunderground v.1.15,2013-10-27 02:52:00,
2013-10-26 22:57:00,47.7,40.2,29.96,NW,313,4.0,7.0,75,0.00,,,0.01,Wunderground v.1.15,2013-10-27 02:57:00,
2013-10-26 23:03:00,47.4,40.9,29.96,West,275,3.0,17.0,78,0.00,,,0.01,Wunderground v.1.15,2013-10-27 03:03:00,
2013-10-26 23:09:00,47.3,41.4,29.96,West,275,4.0,17.0,80,0.00,,,0.01,Wunderground v.1.15,2013-10-27 03:09:00,
2013-10-26 23:14:00,47.1,41.6,29.96,West,275,4.0,6.0,81,0.00,,,0.01,Wunderground v.1.15,2013-10-27 03:14:00,
2013-10-26 23:20:00,46.8,41.6,29.97,NW,313,3.0,6.0,82,0.00,,,0.01,Wunderground v.1.15,2013-10-27 03:20:00,
2013-10-26 23:25:00,46.7,41.2,29.97,WNW,288,2.0,6.0,81,0.00,,,0.01,Wunderground v.1.15,2013-10-27 03:25:00,
2013-10-26 23:31:00,46.5,40.7,29.98,WNW,292,2.0,3.0,80,0.00,,,0.01,Wunderground v.1.15,2013-10-27 03:31:00,
2013-10-26 23:36:00,46.5,40.7,29.98,West,271,2.0,4.0,80,0.00,,,0.01,Wunderground v.1.15,2013-10-27 03:36:00,
2013-10-26 23:42:00,46.4,40.9,29.98,West,271,1.0,2.0,81,0.00,,,0.01,Wunderground v.1.15,2013-10-27 03:42:00,
2013-10-26 23:47:00,46.2,41.0,29.97,West,271,1.0,2.0,82,0.00,,,0.01,Wunderground v.1.15,2013-10-27 03:47:00,
2013-10-26 23:53:00,46.1,40.9,29.97,West,271,0.0,0.0,82,0.00,,,0.01,Wunderground v.1.15,2013-10-27 03:53:00,
2013-10-26 23:58:00,46.1,40.9,29.97,West,271,0.0,0.0,82,0.00,,,0.01,Wunderground v.1.15,2013-10-27 03:58:00,